Aviation Digital Data Service (ADDS)

Output produced by METARs form (2312 UTC 23 May 2022)
found at http://www.aviationweather.gov/metar/data/
 
TAF MDST 232200Z 2400/2500 09006KT 9999 FEW016CB SCT018 SCT300 
     PROB30 2400/2406 7000 -TSRA FEW014CB BKN016 SCT070
       
TAF MDPP 232200Z 2400/2500 09014KT 9999 FEW017CB SCT018 
     PROB30 2400/2406 8000 -TSRA FEW016CB BKN017 SCT070 
     BECMG 2400/2402 00000KT
       
TAF MDLR 232200Z 2400/2500 00000KT 9999 FEW018CB SCT018 
     PROB30 2400/2406 6000 -TSRA FEW014CB BKN016 
     BECMG 2413/2415 09010KT
       
TAF MDSD 232200Z 2400/2500 14008KT 9999 FEW018CB SCT020 
     TEMPO 2400/2406 7000 -TSRA FEW014CB BKN016 BKN070 
     BECMG 2402/2404 06004KT
       
TAF MDBH 232200Z 2400/2500 13010KT 9999 FEW018CB SCT018 SCT080 
     PROB30 2401/2407 7000 -RA FEW016CB BKN016 OVC070 
     BECMG 2408/2410 00000KT
       
TAF MDPC 232200Z 2400/2500 07012KT 9999 FEW018CB BKN020 SCT070 
     PROB30 2400/2406 8000 TSRA FEW016CB BKN018 BKN070